Aeroporto :
LOGIN :

Iscrizione | Disclaimer

   EN    FR    IT 

 










Sommario :    VFR   VFR Marginale   IFR   IFR Intensivo   IFR Molto Intensivo
Visibilità : 
Base nubi : 
>= 8 km
>= 3000ft
5 / 8 km
1000 / 3000 ft
1500m / 5 km
500 / 1000 ft
800 / 1500m
200 / 500 ft
< 800m
< 200 ft
Simboli :   Temporali  Nebbia  Neve Forte  Precipitazioni Forti  Vento > 20 kt
SIGMETs :   Varie  Temporali  Ghiacco  Turbolenza  Onda orograficha  Ceneri Vulcaniche






- Altitudine del aeroporto : 28 ft
- Codice IATA : OLA


ENOL - Ørland

ULTIMO METAR :
  • 210450Z 18010KT 9999 BKN040 03/02 Q0984

METARs OBSOLETI :
  • 210350Z 18007KT CAVOK 01/M02 Q0984
  • 210250Z 19007KT 9999 FEW045 02/M02 Q0984

AMD TAF ENOL
Valido dal 21 a 00 ore il 22 a 00 ore UTC


2100/2124 20010KT 9999 BKN030
TEMPO 2105/2110 24022G38KT SHRA BKN020CB
BECMG 2110/2112 14015KT
BECMG 2114/2116 24025KT
TEMPO 2115/2124 24030G45KT 4000 SHRAGS BKN014CB
PROB30
TEMPO 2120/2123 TS



MetMap, La meteo Aeronautica in un colpo d'occhio ! - Copyright ORBIFLY Dicembre 2007 - Disclaimer

ORBIFLY MET'MAP TEAM :

Programmazione e sviluppo : Alexandra Zaïnal
Concezione : Baudouin d'Aumeries
Aiuto per la programmazione : Marc-Olivier Méhu
Supporto tecnico e logistico : Manuel Goepfert
Aiuto per la traduzione : Arnaldo La Scala

Contatto : metmap@orbifly.com




FONTI E CREDITI :

   NOAA